Palatine, Illinois
Current Conditions -  °F | °C
As of 2:52 PM on Tuesday 21 Oct 2014 (Local Time) from KPWK Reporting Station
Overcast Overcast  
Wind Chill: 50°   Ceiling: 2600
Heat Index: 50°   Visibility: 10mi
Dew Point: 40°   Wind: 10mph
Humidity: 68%   Direction: 340°NNW
Pressure: 30.2"   Gusts: NA
Location:  42.11°N, 88.04°W
Report Text: KPWK 211952Z 34009KT 10SM OVC026 10/04 A3020 RMK AO2 SLP228 T01000044
Loading
Personal Weather Stations






























Interactive Weather Map
Tropical Storm Tracking
New forecast layout! Learn more

10-Day Weather Forecast

Advertisements
Track Severe Weather on mobile